Time;durP1;ratioP1;P1;durP2;ratioP2;P2;SDS_P1;SDS_P2;PMS_P1;PMS_P2;Temp;Humidity;BMP_temperature;BMP_pressure;BME280_temperature;BME280_humidity;BME280_pressure;Samples;Min_cycle;Max_cycle;Signal;HPM_P1;HPM_P2
2021/01/19 17:18:34;;;;;;;2.50;2.13;;;;;;;10.18;45.60;98591.56;6794069;29;20222;-87
2021/01/19 17:22:11;;;;;;;2.53;2.00;;;;;;;10.29;45.62;98609.81;6796905;29;20272;-88
2021/01/19 17:25:37;;;;;;;2.67;2.20;;;;;;;10.28;45.46;98602.72;6796246;29;20235;-87
2021/01/19 17:28:59;;;;;;;2.53;2.33;;;;;;;10.05;46.72;98606.88;6796631;29;20187;-87
2021/01/19 17:32:23;;;;;;;2.47;2.20;;;;;;;9.94;46.13;98592.16;6796207;29;20242;-87
2021/01/19 17:36:21;;;;;;;1.90;1.80;;;;;;;9.90;46.66;98612.44;6796816;29;20207;-87
2021/01/19 17:39:49;;;;;;;2.53;2.33;;;;;;;9.82;46.45;98557.94;6796610;29;20271;-87
2021/01/19 17:43:10;;;;;;;2.50;2.30;;;;;;;9.76;46.95;98566.84;6797357;29;20232;-87
2021/01/19 17:46:36;;;;;;;2.90;2.70;;;;;;;9.83;45.58;98521.91;6796638;29;20253;-89
2021/01/19 17:50:01;;;;;;;3.30;3.00;;;;;;;10.01;45.67;98530.19;6859370;28;20206;-87
2021/01/19 17:53:29;;;;;;;3.50;2.60;;;;;;;10.09;47.28;98606.25;6888394;28;20231;-88
2021/01/19 17:56:51;;;;;;;3.97;3.23;;;;;;;9.38;48.44;98538.81;6906116;28;20266;-89
2021/01/19 18:00:26;;;;;;;6.70;4.77;;;;;;;9.75;48.29;98563.31;6902440;28;20655;-88
2021/01/19 18:03:53;;;;;;;4.27;3.20;;;;;;;8.72;49.36;98442.91;6905114;28;20307;-90
2021/01/19 18:07:15;;;;;;;2.70;2.50;;;;;;;8.47;50.33;98436.41;6904503;28;20207;-93
2021/01/19 18:10:40;;;;;;;6.50;4.43;;;;;;;9.23;49.19;98511.28;6907162;28;20247;-89
2021/01/19 18:14:23;;;;;;;;;;;;;;;;;;;;;
2021/01/19 18:17:47;;;;;;;3.37;3.03;;;;;;;9.46;49.58;98514.44;6912916;28;20201;-91
2021/01/19 18:21:39;;;;;;;3.63;2.87;;;;;;;9.77;48.80;98565.81;6915783;28;20224;-88
2021/01/19 18:25:37;;;;;;;2.50;2.30;;;;;;;9.15;48.44;98455.81;6923047;28;20242;-92
2021/01/19 18:33:52;;;;;;;2.23;2.07;;;;;;;8.86;49.64;98511.81;6874939;28;20219;-91
2021/01/19 18:37:44;;;;;;;2.10;2.00;;;;;;;9.65;48.24;98564.75;6924549;28;20216;-93
2021/01/19 18:41:55;;;;;;;2.20;2.10;;;;;;;9.36;48.74;98548.97;6842458;29;20273;-92
2021/01/19 18:45:27;;;;;;;2.20;2.00;;;;;;;9.74;48.52;98564.34;6812193;29;20243;-90
2021/01/19 18:48:56;;;;;;;2.17;2.07;;;;;;;8.98;47.87;98446.47;6808437;29;20207;-90
2021/01/19 18:52:34;;;;;;;2.20;2.00;;;;;;;9.81;46.45;98534.75;6819770;29;20221;-90
2021/01/19 18:56:19;;;;;;;3.13;2.40;;;;;;;9.13;47.85;98488.53;6827745;29;20212;-89
2021/01/19 18:59:49;;;;;;;2.30;2.10;;;;;;;10.05;46.14;98536.84;6804516;29;20222;-91
2021/01/19 19:03:34;;;;;;;2.17;2.07;;;;;;;9.04;46.53;98480.63;6831260;28;20235;-89
2021/01/19 19:07:25;;;;;;;4.00;3.23;;;;;;;9.30;48.97;98529.13;6885370;28;20210;-90
2021/01/19 19:10:56;;;;;;;3.33;3.03;;;;;;;9.31;49.36;98521.84;6882868;28;20230;-88
2021/01/19 19:14:22;;;;;;;3.23;2.90;;;;;;;8.61;49.21;98451.53;6908388;28;20210;-90
2021/01/19 19:17:43;;;;;;;5.17;4.13;;;;;;;9.64;49.08;98522.75;6906991;28;20870;-89
2021/01/19 19:21:06;;;;;;;3.30;3.00;;;;;;;10.05;45.78;98529.59;6907276;28;20271;-88
2021/01/19 19:24:30;;;;;;;2.73;2.40;;;;;;;9.77;46.01;98528.13;6907219;28;20315;-87
2021/01/19 19:27:55;;;;;;;5.90;4.80;;;;;;;9.60;47.77;98526.88;6907384;28;20291;-88
2021/01/19 19:31:19;;;;;;;3.00;2.77;;;;;;;9.67;46.14;98498.94;6906685;28;20234;-88
2021/01/19 19:34:43;;;;;;;3.30;3.10;;;;;;;9.43;47.09;98512.16;6908615;28;20213;-87
2021/01/19 19:38:05;;;;;;;3.30;3.00;;;;;;;8.79;46.50;98438.34;6906674;28;20236;-89
2021/01/19 19:41:27;;;;;;;3.73;2.60;;;;;;;9.85;45.04;98511.75;6906630;28;20235;-88
2021/01/19 19:44:51;;;;;;;6.50;5.90;;;;;;;10.38;44.34;98513.38;6901889;28;20228;-89
2021/01/19 19:48:12;;;;;;;5.40;4.20;;;;;;;8.98;45.84;98437.59;6899563;28;20197;-86
2021/01/19 19:51:34;;;;;;;3.70;2.83;;;;;;;9.57;44.60;98532.69;6907722;28;20227;-87
2021/01/19 19:54:59;;;;;;;2.90;2.50;;;;;;;9.70;42.83;98522.72;6908309;28;20212;-87
2021/01/19 19:58:24;;;;;;;2.93;2.53;;;;;;;10.01;42.46;98508.66;6908155;28;20238;-89
2021/01/19 20:01:51;;;;;;;4.90;4.27;;;;;;;9.36;45.01;98398.31;6907513;28;20228;-87
2021/01/19 20:05:13;;;;;;;36.10;17.60;;;;;;;9.08;47.11;98462.22;6917312;28;20236;-88
2021/01/19 20:08:35;;;;;;;13.20;7.77;;;;;;;9.07;46.48;98517.03;6903565;28;20208;-88
2021/01/19 20:12:05;;;;;;;12.47;9.93;;;;;;;9.86;45.62;98502.66;6904383;28;20228;-87
2021/01/19 20:15:27;;;;;;;9.47;7.33;;;;;;;9.35;45.63;98418.19;6906348;28;20211;-86
2021/01/19 20:18:51;;;;;;;7.23;4.83;;;;;;;9.10;45.24;98452.09;6907988;28;20241;-87
2021/01/19 20:22:16;;;;;;;7.67;5.27;;;;;;;9.42;44.80;98440.53;6907147;28;20232;-86
2021/01/19 20:25:41;;;;;;;4.23;3.20;;;;;;;8.98;44.90;98487.84;6908322;28;20218;-87
2021/01/19 20:29:04;;;;;;;2.60;2.40;;;;;;;9.33;43.06;98482.16;6907182;28;20216;-87
2021/01/19 20:32:29;;;;;;;4.90;2.30;;;;;;;9.85;40.98;98476.75;6897431;28;20269;-90
2021/01/19 20:35:50;;;;;;;2.63;2.40;;;;;;;9.67;40.91;98476.56;6904239;28;20197;-88
2021/01/19 20:39:18;;;;;;;3.47;2.60;;;;;;;9.28;41.48;98441.56;6903424;28;20235;-86
2021/01/19 20:42:46;;;;;;;2.47;2.27;;;;;;;10.15;38.52;98478.00;6879072;28;20217;-89
2021/01/19 20:46:08;;;;;;;2.50;2.30;;;;;;;9.82;38.98;98385.66;6885136;28;20223;-88
2021/01/19 20:49:29;;;;;;;3.70;2.87;;;;;;;10.46;38.45;98488.91;6905347;28;20685;-87
2021/01/19 20:52:54;;;;;;;5.03;3.80;;;;;;;10.62;39.16;98429.16;6907012;28;20255;-86
2021/01/19 20:56:15;;;;;;;4.43;3.80;;;;;;;9.77;40.34;98455.44;6916368;28;20207;-87
2021/01/19 20:59:39;;;;;;;3.70;3.37;;;;;;;9.52;40.40;98400.59;6932795;28;20202;-88
2021/01/19 21:03:01;;;;;;;4.97;4.00;;;;;;;9.30;40.81;98450.25;6933770;28;20224;-90
2021/01/19 21:06:24;;;;;;;3.07;2.77;;;;;;;9.21;40.10;98386.94;6933933;28;20222;-87
2021/01/19 21:09:45;;;;;;;3.70;2.73;;;;;;;9.24;40.87;98405.34;6915011;28;20227;-87
2021/01/19 21:13:12;;;;;;;2.60;2.40;;;;;;;9.04;40.56;98375.75;6909572;28;20224;-87
2021/01/19 21:16:33;;;;;;;2.40;2.30;;;;;;;9.86;39.96;98429.97;6903468;28;20198;-87
2021/01/19 21:19:57;;;;;;;3.63;2.80;;;;;;;10.34;39.21;98439.41;6903227;28;20213;-88
2021/01/19 21:23:19;;;;;;;2.40;2.20;;;;;;;10.07;38.90;98398.25;6903388;28;20236;-87
2021/01/19 21:26:41;;;;;;;2.50;2.30;;;;;;;10.34;38.52;98425.94;6918001;28;20203;-88
2021/01/19 21:30:04;;;;;;;2.50;2.30;;;;;;;10.40;37.99;98404.34;6929469;28;20236;-87
2021/01/19 21:33:25;;;;;;;2.43;2.23;;;;;;;9.93;38.31;98376.91;6902657;28;20307;-88
2021/01/19 21:37:11;;;;;;;2.40;2.20;;;;;;;10.43;37.31;98428.19;6900742;28;20192;-87
2021/01/19 21:40:32;;;;;;;2.67;2.47;;;;;;;10.59;37.34;98433.09;6899217;28;20216;-87
2021/01/19 21:43:53;;;;;;;2.30;2.10;;;;;;;10.39;36.76;98373.03;6898456;28;20259;-87
2021/01/19 21:47:14;;;;;;;2.60;2.40;;;;;;;10.50;36.47;98414.69;6897937;28;20610;-87
2021/01/19 21:50:36;;;;;;;2.53;2.33;;;;;;;10.36;37.72;98443.53;6899253;28;20236;-87
2021/01/19 21:53:58;;;;;;;2.20;2.10;;;;;;;10.78;36.10;98434.84;6904335;28;20256;-87
2021/01/19 21:57:19;;;;;;;2.07;1.97;;;;;;;10.26;36.28;98413.50;6908451;28;20531;-87
